createdAt,value
2023-05-23T00:02:23.651Z,23.10
2023-05-23T00:04:51.524Z,24.80
2023-05-23T00:07:18.151Z,24.50
2023-05-23T00:09:44.756Z,24.40
2023-05-23T00:12:12.383Z,24.50
2023-05-23T00:14:40.186Z,25.70
2023-05-23T00:17:08.118Z,25.60
2023-05-23T00:19:36.518Z,25.70
2023-05-23T00:22:03.423Z,25.60
2023-05-23T00:24:29.999Z,25.60
2023-05-23T00:26:58.879Z,25.60
2023-05-23T00:29:25.778Z,26.50
2023-05-23T00:31:52.417Z,27.80
2023-05-23T00:34:19.418Z,27.80
2023-05-23T00:36:50.557Z,27.70
2023-05-23T00:39:19.912Z,27.90
2023-05-23T00:41:51.151Z,28.30
2023-05-23T00:44:20.081Z,28.90
2023-05-23T00:46:49.762Z,29.00
2023-05-23T00:49:20.028Z,29.90
2023-05-23T00:51:46.814Z,29.90
2023-05-23T00:54:14.031Z,29.80
2023-05-23T00:56:41.269Z,31.00
2023-05-23T00:59:07.873Z,31.70
2023-05-23T01:01:36.867Z,31.10
2023-05-23T01:04:04.592Z,31.90
2023-05-23T01:06:33.876Z,32.60
2023-05-23T01:09:02.696Z,33.50
2023-05-23T01:11:41.492Z,35.30
2023-05-23T01:14:13.023Z,35.40
2023-05-23T01:16:48.731Z,35.30
2023-05-23T01:19:36.149Z,35.40
2023-05-23T01:22:06.296Z,35.20
2023-05-23T01:24:36.633Z,35.70
2023-05-23T01:27:03.382Z,35.60
2023-05-23T01:29:34.221Z,35.90
2023-05-23T01:32:01.598Z,36.70
2023-05-23T01:34:29.298Z,37.30
2023-05-23T01:36:56.393Z,37.60
2023-05-23T01:39:23.530Z,39.00
2023-05-23T01:41:51.286Z,39.10
2023-05-23T01:44:20.861Z,40.60
2023-05-23T01:46:48.278Z,40.30
2023-05-23T01:49:15.648Z,40.80
2023-05-23T01:51:42.672Z,41.00
2023-05-23T01:54:09.574Z,41.10
2023-05-23T01:56:36.445Z,40.80
2023-05-23T01:59:03.618Z,41.10
2023-05-23T02:01:30.635Z,42.20
2023-05-23T02:03:57.591Z,42.60
2023-05-23T02:06:24.303Z,41.90
2023-05-23T02:08:51.155Z,41.70
2023-05-23T02:11:17.878Z,42.10
2023-05-23T02:13:44.445Z,42.50
2023-05-23T02:16:11.625Z,43.00
2023-05-23T02:18:38.387Z,42.90
2023-05-23T02:21:05.681Z,42.50
2023-05-23T02:23:32.280Z,43.20
2023-05-23T02:25:59.202Z,43.20
2023-05-23T02:28:25.947Z,43.40
2023-05-23T02:30:52.630Z,42.80
2023-05-23T02:33:19.747Z,44.10
2023-05-23T02:35:46.399Z,46.80
2023-05-23T02:38:13.033Z,44.10
2023-05-23T02:40:39.625Z,44.20
2023-05-23T02:43:06.230Z,45.20
2023-05-23T02:45:32.902Z,46.40
2023-05-23T02:47:59.589Z,46.30
2023-05-23T02:50:26.217Z,46.30
2023-05-23T02:52:53.424Z,46.40
2023-05-23T02:55:20.097Z,46.30
2023-05-23T02:57:46.859Z,46.30
2023-05-23T03:00:13.780Z,46.40
2023-05-23T03:02:40.594Z,46.60
2023-05-23T03:05:07.556Z,47.80
2023-05-23T03:07:34.288Z,47.60
2023-05-23T03:10:01.269Z,48.30
2023-05-23T03:12:28.556Z,48.90
2023-05-23T03:14:55.819Z,49.30
2023-05-23T03:17:25.733Z,50.10
2023-05-23T03:19:52.872Z,50.30
2023-05-23T03:22:19.898Z,50.70
2023-05-23T03:24:46.690Z,51.10
2023-05-23T03:27:13.436Z,51.60
2023-05-23T03:29:40.173Z,51.60
2023-05-23T03:32:06.939Z,52.90
2023-05-23T03:34:36.653Z,53.00
2023-05-23T03:37:04.102Z,53.10
2023-05-23T03:39:31.257Z,54.00
2023-05-23T03:41:58.170Z,54.70
2023-05-23T03:44:25.192Z,55.50
2023-05-23T03:46:52.987Z,56.80
2023-05-23T03:49:19.912Z,56.80
2023-05-23T03:51:46.615Z,56.80
2023-05-23T03:54:13.391Z,56.80
2023-05-23T03:56:40.120Z,56.60
2023-05-23T03:59:06.838Z,56.70
2023-05-23T04:01:33.536Z,56.70
2023-05-23T04:04:00.462Z,56.70
2023-05-23T04:06:30.196Z,56.70
2023-05-23T04:08:57.161Z,56.70
2023-05-23T04:11:23.930Z,56.70
2023-05-23T04:13:52.157Z,57.00
2023-05-23T04:16:19.034Z,57.90
2023-05-23T04:18:47.579Z,58.80
2023-05-23T04:21:14.475Z,58.90
2023-05-23T04:23:41.256Z,58.80
2023-05-23T04:26:07.847Z,58.40
2023-05-23T04:28:34.767Z,56.60
2023-05-23T04:31:03.207Z,56.90
2023-05-23T04:33:30.809Z,57.00
2023-05-23T04:35:57.436Z,57.00
2023-05-23T04:38:25.192Z,57.00
2023-05-23T04:40:54.626Z,57.10
2023-05-23T04:43:21.914Z,57.60
2023-05-23T04:45:51.511Z,56.10
2023-05-23T04:48:21.474Z,55.90
2023-05-23T04:50:48.918Z,54.10
2023-05-23T04:53:15.553Z,54.80
2023-05-23T04:55:42.557Z,55.10
2023-05-23T04:58:09.789Z,54.40
2023-05-23T05:00:36.441Z,53.10
2023-05-23T05:03:03.217Z,52.10
2023-05-23T05:05:29.887Z,52.60
2023-05-23T05:07:57.029Z,52.20
2023-05-23T05:10:23.610Z,51.50
2023-05-23T05:12:50.391Z,50.00
2023-05-23T05:15:17.566Z,47.20
2023-05-23T05:17:45.678Z,47.10
2023-05-23T05:20:15.380Z,47.10
2023-05-23T05:22:43.083Z,45.50
2023-05-23T05:25:10.461Z,44.90
2023-05-23T05:27:39.997Z,42.90
2023-05-23T05:30:07.541Z,40.60
2023-05-23T05:32:34.702Z,41.30
2023-05-23T05:35:01.813Z,36.70
2023-05-23T05:37:28.555Z,34.60
2023-05-23T05:39:55.610Z,33.10
2023-05-23T05:42:22.669Z,30.70
2023-05-23T05:44:49.542Z,28.60
2023-05-23T05:47:16.280Z,27.60
2023-05-23T05:49:42.933Z,26.90
2023-05-23T05:52:09.629Z,26.30
2023-05-23T05:54:36.288Z,23.90
2023-05-23T05:57:02.884Z,23.80
2023-05-23T05:59:31.924Z,22.20
2023-05-23T06:01:59.489Z,19.70
2023-05-23T06:04:26.307Z,18.20
2023-05-23T06:06:52.975Z,14.70
2023-05-23T06:09:20.030Z,12.70
2023-05-23T06:11:46.860Z,12.40
2023-05-23T06:14:13.544Z,12.00
2023-05-23T06:16:41.209Z,9.30
2023-05-23T06:19:08.449Z,9.20
2023-05-23T06:21:36.271Z,6.90
2023-05-23T06:24:03.002Z,6.20
2023-05-23T06:26:29.649Z,4.60
2023-05-23T06:28:56.324Z,3.10
2023-05-23T06:31:23.046Z,1.00
2023-05-23T06:33:49.781Z,1.00
2023-05-23T06:36:16.384Z,1.40
2023-05-23T06:38:42.995Z,1.00
2023-05-23T06:41:09.641Z,1.00
2023-05-23T06:43:36.334Z,1.00
2023-05-23T06:46:03.024Z,1.00
2023-05-23T06:48:29.682Z,1.00
2023-05-23T06:50:56.354Z,1.00
2023-05-23T06:53:22.940Z,1.00
2023-05-23T06:55:49.622Z,1.00
2023-05-23T06:58:16.455Z,1.00
2023-05-23T07:00:43.275Z,1.00
2023-05-23T07:03:10.312Z,1.00
2023-05-23T07:05:40.025Z,1.00
2023-05-23T07:08:07.869Z,1.00
2023-05-23T07:10:35.416Z,1.00
2023-05-23T07:13:02.285Z,1.00
2023-05-23T07:15:28.910Z,1.00
2023-05-23T07:17:55.885Z,1.00
2023-05-23T07:20:22.846Z,1.00
2023-05-23T07:22:51.548Z,1.00
2023-05-23T07:25:18.791Z,1.00
2023-05-23T07:27:45.433Z,1.00
2023-05-23T07:30:12.103Z,1.00
2023-05-23T07:32:38.796Z,1.00
2023-05-23T07:35:05.708Z,1.00
2023-05-23T07:37:32.432Z,1.00
2023-05-23T07:39:59.054Z,1.00
2023-05-23T07:42:25.879Z,1.00
2023-05-23T07:44:52.529Z,1.00
2023-05-23T07:47:19.181Z,1.00
2023-05-23T07:49:47.535Z,1.00
2023-05-23T07:52:14.239Z,1.00
2023-05-23T07:54:40.858Z,1.00
2023-05-23T07:57:07.442Z,1.00
2023-05-23T07:59:34.071Z,1.50
2023-05-23T08:02:00.853Z,3.70
2023-05-23T08:04:28.617Z,3.90
2023-05-23T08:07:04.418Z,3.50
2023-05-23T08:09:32.436Z,3.90
2023-05-23T08:11:59.040Z,2.50
2023-05-23T08:14:34.984Z,1.30
2023-05-23T08:17:09.385Z,1.00
2023-05-23T08:19:36.293Z,1.00
2023-05-23T08:22:04.693Z,1.00
2023-05-23T08:24:31.411Z,1.00
2023-05-23T08:26:58.010Z,1.00
2023-05-23T08:29:24.664Z,1.00
2023-05-23T08:31:51.277Z,1.00
2023-05-23T08:34:18.114Z,1.00
2023-05-23T08:36:44.870Z,1.00
2023-05-23T08:39:13.820Z,1.00
2023-05-23T08:41:40.803Z,1.00
2023-05-23T08:44:07.355Z,1.00
2023-05-23T08:46:34.144Z,1.00
2023-05-23T08:49:01.235Z,1.00
2023-05-23T08:51:28.670Z,1.00
2023-05-23T08:53:56.458Z,1.00
2023-05-23T08:56:24.577Z,1.00
2023-05-23T08:58:53.183Z,1.00
2023-05-23T09:01:20.586Z,1.00
2023-05-23T09:03:48.467Z,1.00
2023-05-23T09:06:15.242Z,1.00
2023-05-23T09:08:42.005Z,1.00
2023-05-23T09:11:08.900Z,1.00
2023-05-23T09:13:35.496Z,1.00
2023-05-23T09:16:03.468Z,1.00
2023-05-23T09:18:39.282Z,1.00
2023-05-23T09:21:06.244Z,1.00
2023-05-23T09:23:33.525Z,1.00
2023-05-23T09:26:03.115Z,1.00
2023-05-23T09:28:30.098Z,1.00
2023-05-23T09:31:03.864Z,1.00
2023-05-23T09:33:36.281Z,1.00
2023-05-23T09:36:06.312Z,1.00
2023-05-23T09:38:38.521Z,1.00
2023-05-23T09:41:05.659Z,1.00
2023-05-23T09:43:32.736Z,1.00
2023-05-23T09:46:09.577Z,1.00
2023-05-23T09:48:36.240Z,1.00
2023-05-23T09:51:09.652Z,1.00
2023-05-23T09:53:36.695Z,1.00
2023-05-23T09:56:04.246Z,1.00
2023-05-23T09:58:32.618Z,1.00
2023-05-23T10:01:05.851Z,1.00
2023-05-23T10:03:39.590Z,1.00
2023-05-23T10:06:12.803Z,1.00
2023-05-23T10:08:43.758Z,1.00
2023-05-23T10:11:30.680Z,1.00
2023-05-23T10:13:58.828Z,1.00
2023-05-23T10:16:40.173Z,1.00
2023-05-23T10:19:10.756Z,1.00
2023-05-23T10:21:45.426Z,1.00
2023-05-23T10:24:14.550Z,1.00
2023-05-23T10:26:41.167Z,1.00
2023-05-23T10:29:07.747Z,1.00
2023-05-23T10:31:34.985Z,1.00
2023-05-23T10:34:21.945Z,1.00
2023-05-23T10:37:00.840Z,1.00
2023-05-23T10:39:35.642Z,1.00
2023-05-23T10:42:04.520Z,1.00
2023-05-23T10:44:31.658Z,1.00
2023-05-23T10:47:01.246Z,1.00
2023-05-23T10:49:40.958Z,1.00
2023-05-23T10:52:10.173Z,1.00
2023-05-23T10:54:37.427Z,1.00
2023-05-23T10:57:04.629Z,1.00
2023-05-23T10:59:31.359Z,1.00
2023-05-23T11:01:59.667Z,1.00
2023-05-23T11:04:28.006Z,1.00
2023-05-23T11:06:55.527Z,1.00
2023-05-23T11:09:22.516Z,1.00
2023-05-23T11:11:49.127Z,1.00
2023-05-23T11:14:15.889Z,1.00
2023-05-23T11:16:43.360Z,1.00
2023-05-23T11:19:19.325Z,1.00
2023-05-23T11:21:46.785Z,1.00
2023-05-23T11:24:13.401Z,1.00
2023-05-23T11:26:40.373Z,1.00
2023-05-23T11:29:10.140Z,1.00
2023-05-23T11:31:40.749Z,1.00
2023-05-23T11:34:07.472Z,1.00
2023-05-23T11:36:35.142Z,1.00
2023-05-23T11:39:03.027Z,1.00
2023-05-23T11:41:33.759Z,1.00
2023-05-23T11:44:01.594Z,1.00
2023-05-23T11:46:28.486Z,1.00
2023-05-23T11:48:55.329Z,1.00
2023-05-23T11:51:22.249Z,1.00
2023-05-23T11:53:49.158Z,1.00
2023-05-23T11:56:16.334Z,1.00
2023-05-23T11:58:45.152Z,1.00
2023-05-23T12:01:12.407Z,1.00
2023-05-23T12:03:48.878Z,1.00
2023-05-23T12:06:16.524Z,1.00
2023-05-23T12:08:43.092Z,1.00
2023-05-23T12:11:10.116Z,1.00
2023-05-23T12:13:36.741Z,1.00
2023-05-23T12:16:04.529Z,1.00
2023-05-23T12:18:32.323Z,1.00
2023-05-23T12:21:03.177Z,1.00
2023-05-23T12:23:31.911Z,1.00
2023-05-23T12:26:00.781Z,1.00
2023-05-23T12:28:36.865Z,1.00
2023-05-23T12:31:14.034Z,1.00
2023-05-23T12:33:43.713Z,1.00
2023-05-23T12:36:11.230Z,1.00
2023-05-23T12:38:38.918Z,1.00
2023-05-23T12:41:12.509Z,1.00
2023-05-23T12:43:40.209Z,1.00
2023-05-23T12:46:07.705Z,1.00
2023-05-23T12:48:34.604Z,1.00
2023-05-23T12:51:03.072Z,1.00
2023-05-23T12:53:30.003Z,1.00
2023-05-23T12:55:56.590Z,1.00
2023-05-23T12:58:23.604Z,1.00
2023-05-23T13:00:50.837Z,1.00
2023-05-23T13:03:18.296Z,1.00
2023-05-23T13:05:45.075Z,1.00
2023-05-23T13:08:12.548Z,1.00
2023-05-23T13:10:39.843Z,1.00
2023-05-23T13:13:06.482Z,1.00
2023-05-23T13:15:33.107Z,1.00
2023-05-23T13:17:59.751Z,1.00
2023-05-23T13:20:30.198Z,1.00
2023-05-23T13:22:57.644Z,1.00
2023-05-23T13:25:24.620Z,1.00
2023-05-23T13:27:51.337Z,1.00
2023-05-23T13:30:18.020Z,1.00
2023-05-23T13:32:44.749Z,1.00
2023-05-23T13:35:11.423Z,1.00
2023-05-23T13:37:38.381Z,1.00
2023-05-23T13:40:05.773Z,1.00
2023-05-23T13:42:32.900Z,1.00
2023-05-23T13:44:59.491Z,1.00
2023-05-23T13:47:26.144Z,1.00
2023-05-23T13:49:52.763Z,1.00
2023-05-23T13:52:20.193Z,1.00
2023-05-23T13:54:47.046Z,1.00
2023-05-23T13:57:13.989Z,1.00
2023-05-23T13:59:40.748Z,1.00
2023-05-23T14:02:08.267Z,1.00
2023-05-23T14:04:35.085Z,1.00
2023-05-23T14:07:01.755Z,1.00
2023-05-23T14:09:28.340Z,1.00
2023-05-23T14:11:55.153Z,1.00
2023-05-23T14:14:21.826Z,1.00
2023-05-23T14:16:50.697Z,1.00
2023-05-23T14:19:17.385Z,1.00
2023-05-23T14:21:45.115Z,1.00
2023-05-23T14:24:12.106Z,1.00
2023-05-23T14:26:38.758Z,1.00
2023-05-23T14:29:05.520Z,1.00
2023-05-23T14:31:32.150Z,1.00
2023-05-23T14:33:58.876Z,1.00
2023-05-23T14:36:26.223Z,1.00
2023-05-23T14:38:52.781Z,1.00
2023-05-23T14:41:19.369Z,1.00
2023-05-23T14:43:46.057Z,1.00
2023-05-23T14:46:13.937Z,1.00
2023-05-23T14:48:40.792Z,1.00
2023-05-23T14:51:07.435Z,1.00
2023-05-23T14:53:34.118Z,1.00
2023-05-23T14:56:00.873Z,1.00
2023-05-23T14:58:27.536Z,1.00
2023-05-23T15:00:54.157Z,1.00
2023-05-23T15:03:20.795Z,1.00
2023-05-23T15:05:48.910Z,1.00
2023-05-23T15:08:18.202Z,1.00
2023-05-23T15:10:45.315Z,1.00
2023-05-23T15:13:12.701Z,1.00
2023-05-23T15:15:40.892Z,1.00
2023-05-23T15:18:10.038Z,1.00
2023-05-23T15:20:36.798Z,1.00
2023-05-23T15:23:04.031Z,1.00
2023-05-23T15:25:47.152Z,1.00
2023-05-23T15:28:16.008Z,1.00
2023-05-23T15:30:43.490Z,1.00
2023-05-23T15:33:10.532Z,1.00
2023-05-23T15:35:37.155Z,1.00
2023-05-23T15:38:04.477Z,1.00
2023-05-23T15:40:31.062Z,1.00
2023-05-23T15:42:58.063Z,1.00
2023-05-23T15:45:24.752Z,1.00
2023-05-23T15:47:51.377Z,1.00
2023-05-23T15:50:18.969Z,1.00
2023-05-23T15:52:45.594Z,1.00
2023-05-23T15:55:12.297Z,1.00
2023-05-23T15:57:38.905Z,1.00
2023-05-23T16:00:06.256Z,1.00
2023-05-23T16:02:32.932Z,1.00
2023-05-23T16:04:59.754Z,1.00
2023-05-23T16:07:26.445Z,1.00
2023-05-23T16:09:53.045Z,1.00
2023-05-23T16:12:19.632Z,1.00
2023-05-23T16:14:46.233Z,1.00
2023-05-23T16:17:12.866Z,1.00
2023-05-23T16:19:39.549Z,1.00
2023-05-23T16:22:06.402Z,1.00
2023-05-23T16:24:33.056Z,1.00
2023-05-23T16:27:00.261Z,1.00
2023-05-23T16:29:26.965Z,1.00
2023-05-23T16:31:53.571Z,1.00
2023-05-23T16:34:20.176Z,1.00
2023-05-23T16:36:46.902Z,1.00
2023-05-23T16:39:13.509Z,1.00
2023-05-23T16:41:40.192Z,1.00
2023-05-23T16:44:06.832Z,1.00
2023-05-23T16:46:33.445Z,1.00
2023-05-23T16:49:00.135Z,1.00
2023-05-23T16:51:26.734Z,1.00
2023-05-23T16:53:53.561Z,1.00
2023-05-23T16:56:21.506Z,1.00
2023-05-23T16:58:48.072Z,1.00
2023-05-23T17:01:16.746Z,1.00
2023-05-23T17:03:43.557Z,1.00
2023-05-23T17:06:10.439Z,1.00
2023-05-23T17:08:37.045Z,1.00
2023-05-23T17:11:03.678Z,1.00
2023-05-23T17:13:31.650Z,1.00
2023-05-23T17:15:58.388Z,1.00
2023-05-23T17:18:24.985Z,1.00
2023-05-23T17:20:52.748Z,1.00
2023-05-23T17:23:19.458Z,1.00
2023-05-23T17:25:46.217Z,1.00
2023-05-23T17:28:12.965Z,1.00
2023-05-23T17:30:39.734Z,2.90
2023-05-23T17:33:06.412Z,1.90
2023-05-23T17:35:33.093Z,1.10
2023-05-23T17:38:00.840Z,1.00
2023-05-23T17:40:27.529Z,1.00
2023-05-23T17:42:54.286Z,1.60
2023-05-23T17:45:21.477Z,1.00
2023-05-23T17:47:48.198Z,1.00
2023-05-23T17:50:14.920Z,1.00
2023-05-23T17:52:42.439Z,1.00
2023-05-23T17:55:09.379Z,1.00
2023-05-23T17:57:37.973Z,1.00
2023-05-23T18:00:06.022Z,1.40
2023-05-23T18:02:32.781Z,2.40
2023-05-23T18:05:00.139Z,1.40
2023-05-23T18:07:26.865Z,1.30
2023-05-23T18:09:53.670Z,1.50
2023-05-23T18:12:20.738Z,3.10
2023-05-23T18:14:48.389Z,3.50
2023-05-23T18:17:15.117Z,2.40
2023-05-23T18:19:42.129Z,3.50
2023-05-23T18:22:09.745Z,6.50
2023-05-23T18:24:36.585Z,2.60
2023-05-23T18:27:04.505Z,3.60
2023-05-23T18:29:31.691Z,4.50
2023-05-23T18:31:58.349Z,5.30
2023-05-23T18:34:26.584Z,6.00
2023-05-23T18:36:55.585Z,5.80
2023-05-23T18:39:22.333Z,5.90
2023-05-23T18:41:48.966Z,5.80
2023-05-23T18:44:17.472Z,5.70
2023-05-23T18:46:45.912Z,6.40
2023-05-23T18:49:12.606Z,6.60
2023-05-23T18:51:39.267Z,6.70
2023-05-23T18:54:05.916Z,7.10
2023-05-23T18:56:32.550Z,8.20
2023-05-23T18:58:59.176Z,9.80
2023-05-23T19:01:25.921Z,10.40
2023-05-23T19:03:53.156Z,10.60
2023-05-23T19:06:19.834Z,10.40
2023-05-23T19:08:46.808Z,10.40
2023-05-23T19:11:14.709Z,11.20
2023-05-23T19:13:41.284Z,11.80
2023-05-23T19:16:08.465Z,11.20
2023-05-23T19:18:35.764Z,11.90
2023-05-23T19:21:02.457Z,12.90
2023-05-23T19:23:29.198Z,12.70
2023-05-23T19:25:55.852Z,13.80
2023-05-23T19:28:22.678Z,14.90
2023-05-23T19:30:49.442Z,15.20
2023-05-23T19:33:16.759Z,14.50
2023-05-23T19:35:43.642Z,15.10
2023-05-23T19:38:10.367Z,14.20
2023-05-23T19:40:36.964Z,13.90
2023-05-23T19:43:03.642Z,13.30
2023-05-23T19:45:30.275Z,13.30
2023-05-23T19:47:58.135Z,13.20
2023-05-23T19:50:24.820Z,14.70
2023-05-23T19:52:52.111Z,14.70
2023-05-23T19:55:18.871Z,14.70
2023-05-23T19:57:45.517Z,14.60
2023-05-23T20:00:14.611Z,15.50
2023-05-23T20:02:41.575Z,16.20
2023-05-23T20:05:08.550Z,16.70
2023-05-23T20:07:36.608Z,17.50
2023-05-23T20:10:03.866Z,18.50
2023-05-23T20:12:30.500Z,18.20
2023-05-23T20:14:57.488Z,17.80
2023-05-23T20:17:24.222Z,17.60
2023-05-23T20:19:50.941Z,18.00
2023-05-23T20:22:17.785Z,18.00
2023-05-23T20:24:44.386Z,18.50
2023-05-23T20:27:11.064Z,19.10
2023-05-23T20:29:37.724Z,18.80
2023-05-23T20:32:04.449Z,19.10
2023-05-23T20:34:31.770Z,19.00
2023-05-23T20:36:58.434Z,18.90
2023-05-23T20:39:25.079Z,21.20
2023-05-23T20:41:51.815Z,20.90
2023-05-23T20:44:18.545Z,20.30
2023-05-23T20:46:45.837Z,20.10
2023-05-23T20:49:12.536Z,19.90
2023-05-23T20:51:39.273Z,18.90
2023-05-23T20:54:06.617Z,18.70
2023-05-23T20:56:33.505Z,18.70
2023-05-23T20:59:03.517Z,17.70
2023-05-23T21:01:30.509Z,17.60
2023-05-23T21:03:57.291Z,16.40
2023-05-23T21:06:23.875Z,16.70
2023-05-23T21:08:50.542Z,16.80
2023-05-23T21:11:17.408Z,15.60
2023-05-23T21:13:44.669Z,14.50
2023-05-23T21:16:14.315Z,14.00
2023-05-23T21:18:41.881Z,13.70
2023-05-23T21:21:08.542Z,13.10
2023-05-23T21:23:35.410Z,11.50
2023-05-23T21:26:02.034Z,8.90
2023-05-23T21:28:28.715Z,8.20
2023-05-23T21:30:55.836Z,7.30
2023-05-23T21:33:22.558Z,7.80
2023-05-23T21:35:49.373Z,7.30
2023-05-23T21:38:16.036Z,8.80
2023-05-23T21:40:42.930Z,8.30
2023-05-23T21:43:11.036Z,8.90
2023-05-23T21:45:37.689Z,8.80
2023-05-23T21:48:04.389Z,8.90
2023-05-23T21:50:31.034Z,8.80
2023-05-23T21:52:57.683Z,8.80
2023-05-23T21:55:24.271Z,8.80
2023-05-23T21:57:50.841Z,8.90
2023-05-23T22:00:19.136Z,8.80
2023-05-23T22:02:46.174Z,8.90
2023-05-23T22:05:13.185Z,9.00
2023-05-23T22:07:39.945Z,8.70
2023-05-23T22:10:07.413Z,8.70
2023-05-23T22:12:33.998Z,8.90
2023-05-23T22:15:01.004Z,10.00
2023-05-23T22:17:27.681Z,8.30
2023-05-23T22:19:55.833Z,9.40
2023-05-23T22:22:22.581Z,8.10
2023-05-23T22:24:49.253Z,8.80
2023-05-23T22:27:15.957Z,9.00
2023-05-23T22:29:42.794Z,10.90
2023-05-23T22:32:09.507Z,9.30
2023-05-23T22:34:36.262Z,9.90
2023-05-23T22:37:03.309Z,9.80
2023-05-23T22:39:30.056Z,10.00
2023-05-23T22:41:56.705Z,10.70
2023-05-23T22:44:23.300Z,13.10
2023-05-23T22:46:52.020Z,12.70
2023-05-23T22:49:21.661Z,12.70
2023-05-23T22:51:48.444Z,12.80
2023-05-23T22:54:15.053Z,12.50
2023-05-23T22:56:41.619Z,13.10
2023-05-23T22:59:08.236Z,12.50
2023-05-23T23:01:34.967Z,11.80
2023-05-23T23:04:01.680Z,12.50
2023-05-23T23:06:29.312Z,13.00
2023-05-23T23:08:56.197Z,13.00
2023-05-23T23:11:22.862Z,12.60
2023-05-23T23:13:49.445Z,11.80
2023-05-23T23:16:19.232Z,8.60
2023-05-23T23:18:47.069Z,8.20
2023-05-23T23:21:13.914Z,8.30
2023-05-23T23:23:40.905Z,8.20
2023-05-23T23:26:07.707Z,8.90
2023-05-23T23:28:34.454Z,9.10
2023-05-23T23:31:01.163Z,8.50
2023-05-23T23:38:22.132Z,9.20
2023-05-23T23:40:48.742Z,9.40
2023-05-23T23:43:15.383Z,9.60
2023-05-23T23:45:42.105Z,10.10
2023-05-23T23:48:08.906Z,10.90
2023-05-23T23:50:35.558Z,11.10
2023-05-23T23:53:02.373Z,11.30
2023-05-23T23:55:29.004Z,12.10
